createdAt,value
2018-07-06T00:01:29.757Z,5.67
2018-07-06T00:04:12.054Z,6.00
2018-07-06T00:06:54.422Z,6.43
2018-07-06T00:09:36.592Z,7.23
2018-07-06T00:12:21.257Z,6.73
2018-07-06T00:15:03.945Z,7.80
2018-07-06T00:17:46.354Z,8.80
2018-07-06T00:20:22.823Z,8.87
2018-07-06T00:23:05.323Z,7.87
2018-07-06T00:25:47.551Z,10.27
2018-07-06T00:28:29.624Z,11.27
2018-07-06T00:31:11.650Z,13.33
2018-07-06T00:33:53.621Z,12.80
2018-07-06T00:36:35.593Z,14.20
2018-07-06T00:39:17.643Z,16.63
2018-07-06T00:41:59.558Z,16.40
2018-07-06T00:44:41.534Z,17.37
2018-07-06T00:47:23.511Z,16.03
2018-07-06T00:50:05.402Z,17.17
2018-07-06T00:52:47.199Z,17.90
2018-07-06T00:55:29.069Z,18.00
2018-07-06T00:58:11.019Z,19.47
2018-07-06T01:00:53.011Z,18.10
2018-07-06T01:03:34.877Z,18.10
2018-07-06T01:06:16.871Z,17.50
2018-07-06T01:08:58.691Z,17.60
2018-07-06T01:11:40.579Z,17.20
2018-07-06T01:14:22.454Z,20.00
2018-07-06T01:17:04.790Z,18.10
2018-07-06T01:19:40.651Z,19.97
2018-07-06T01:22:22.606Z,21.00
2018-07-06T01:25:04.598Z,19.57
2018-07-06T01:27:46.511Z,17.60
2018-07-06T01:30:28.304Z,19.80
2018-07-06T01:33:10.179Z,19.50
2018-07-06T01:35:52.031Z,18.60
2018-07-06T01:38:34.061Z,20.30
2018-07-06T01:41:16.135Z,17.60
2018-07-06T01:43:58.047Z,19.30
2018-07-06T01:46:39.790Z,20.00
2018-07-06T01:49:21.534Z,19.10
2018-07-06T01:52:03.503Z,21.50
2018-07-06T01:54:45.594Z,20.10
2018-07-06T01:57:27.687Z,21.50
2018-07-06T02:00:09.811Z,21.63
2018-07-06T02:02:51.816Z,21.10
2018-07-06T02:05:33.655Z,21.30
2018-07-06T02:08:15.615Z,19.97
2018-07-06T02:10:57.353Z,21.37
2018-07-06T02:13:39.217Z,21.57
2018-07-06T02:16:21.074Z,22.97
2018-07-06T02:19:02.761Z,20.50
2018-07-06T02:21:44.691Z,21.73
2018-07-06T02:24:26.578Z,21.30
2018-07-06T02:27:08.444Z,20.53
2018-07-06T02:29:51.167Z,20.40
2018-07-06T02:32:32.978Z,23.90
2018-07-06T02:35:14.755Z,24.40
2018-07-06T02:37:56.776Z,25.20
2018-07-06T02:40:38.667Z,25.00
2018-07-06T02:43:20.538Z,24.40
2018-07-06T02:46:02.631Z,26.53
2018-07-06T02:48:44.679Z,26.30
2018-07-06T02:51:26.564Z,24.77
2018-07-06T02:54:08.501Z,25.70
2018-07-06T02:56:50.722Z,28.40
2018-07-06T02:59:27.592Z,30.60
2018-07-06T03:02:09.367Z,29.33
2018-07-06T03:04:51.442Z,29.80
2018-07-06T03:07:33.490Z,29.97
2018-07-06T03:10:15.394Z,30.90
2018-07-06T03:12:57.308Z,34.20
2018-07-06T03:15:39.098Z,33.23
2018-07-06T03:18:20.927Z,32.97
2018-07-06T03:21:02.882Z,30.93
2018-07-06T03:23:44.654Z,31.93
2018-07-06T03:26:26.412Z,29.90
2018-07-06T03:29:08.401Z,31.13
2018-07-06T03:31:50.267Z,30.40
2018-07-06T03:34:32.203Z,29.60
2018-07-06T03:37:14.188Z,29.27
2018-07-06T03:39:56.123Z,28.10
2018-07-06T03:42:37.903Z,26.60
2018-07-06T03:45:19.963Z,26.53
2018-07-06T03:48:01.967Z,25.60
2018-07-06T03:50:43.874Z,25.40
2018-07-06T03:53:25.880Z,23.80
2018-07-06T03:56:08.361Z,22.93
2018-07-06T03:58:50.318Z,20.60
2018-07-06T04:01:32.372Z,20.40
2018-07-06T04:04:14.483Z,19.70
2018-07-06T04:06:56.385Z,20.33
2018-07-06T04:09:38.276Z,18.70
2018-07-06T04:12:20.106Z,19.73
2018-07-06T04:15:01.860Z,18.40
2018-07-06T04:17:43.801Z,19.80
2018-07-06T04:20:25.656Z,18.87
2018-07-06T04:23:07.607Z,19.80
2018-07-06T04:25:49.580Z,17.10
2018-07-06T04:28:31.604Z,19.50
2018-07-06T04:31:13.581Z,18.40
2018-07-06T04:33:55.442Z,18.57
2018-07-06T04:36:37.245Z,17.43
2018-07-06T04:39:19.187Z,18.50
2018-07-06T04:42:01.206Z,17.13
2018-07-06T04:44:44.212Z,20.23
2018-07-06T04:47:26.125Z,18.13
2018-07-06T04:50:08.727Z,18.73
2018-07-06T04:52:52.333Z,17.80
2018-07-06T04:55:35.063Z,17.47
2018-07-06T04:58:17.037Z,14.53
2018-07-06T05:00:59.354Z,14.43
2018-07-06T05:03:41.321Z,16.10
2018-07-06T05:06:23.508Z,15.23
2018-07-06T05:09:06.590Z,15.40
2018-07-06T05:11:48.681Z,13.80
2018-07-06T05:14:30.721Z,15.30
2018-07-06T05:17:12.663Z,14.80
2018-07-06T05:19:49.433Z,14.03
2018-07-06T05:22:31.654Z,12.40
2018-07-06T05:25:13.657Z,11.93
2018-07-06T05:27:55.591Z,11.70
2018-07-06T05:30:37.550Z,11.80
2018-07-06T05:33:19.845Z,10.60
2018-07-06T05:36:01.912Z,11.33
2018-07-06T05:38:43.752Z,9.57
2018-07-06T05:41:25.733Z,10.87
2018-07-06T05:44:07.755Z,11.37
2018-07-06T05:46:49.768Z,11.07
2018-07-06T05:49:31.810Z,11.13
2018-07-06T05:52:13.813Z,10.77
2018-07-06T05:54:55.710Z,9.50
2018-07-06T05:57:37.534Z,10.43
2018-07-06T06:00:19.259Z,10.30
2018-07-06T06:03:01.129Z,10.07
2018-07-06T06:05:43.081Z,11.07
2018-07-06T06:08:12.959Z,11.80
2018-07-06T06:10:46.086Z,11.27
2018-07-06T06:13:19.239Z,11.50
2018-07-06T06:15:52.271Z,12.40
2018-07-06T06:18:25.355Z,12.37
2018-07-06T06:20:58.366Z,13.17
2018-07-06T06:23:31.450Z,12.43
2018-07-06T06:26:04.452Z,13.80
2018-07-06T06:28:37.469Z,15.00
2018-07-06T06:31:10.701Z,14.00
2018-07-06T06:33:44.172Z,14.20
2018-07-06T06:36:17.772Z,15.37
2018-07-06T06:38:51.314Z,15.87
2018-07-06T06:41:25.068Z,15.90
2018-07-06T06:43:58.569Z,13.77
2018-07-06T06:46:31.769Z,11.10
2018-07-06T06:49:05.043Z,11.67
2018-07-06T06:51:38.824Z,11.57
2018-07-06T06:54:11.986Z,9.80
2018-07-06T06:56:45.233Z,10.40
2018-07-06T06:59:18.528Z,9.13
2018-07-06T07:01:51.887Z,10.17
2018-07-06T07:04:25.717Z,9.40
2018-07-06T07:06:58.987Z,9.20
2018-07-06T07:09:32.015Z,9.70
2018-07-06T07:12:05.070Z,9.87
2018-07-06T07:14:38.206Z,8.73
2018-07-06T07:17:11.279Z,9.13
2018-07-06T07:19:44.639Z,8.77
2018-07-06T07:22:18.197Z,9.40
2018-07-06T07:24:51.453Z,9.77
2018-07-06T07:27:24.575Z,8.17
2018-07-06T07:29:57.941Z,8.70
2018-07-06T07:32:31.351Z,8.60
2018-07-06T07:35:04.660Z,9.00
2018-07-06T07:37:38.051Z,9.73
2018-07-06T07:40:11.401Z,8.70
2018-07-06T07:42:44.673Z,8.27
2018-07-06T07:45:17.795Z,7.83
2018-07-06T07:47:51.045Z,7.40
2018-07-06T07:50:24.152Z,7.20
2018-07-06T07:53:06.227Z,7.63
2018-07-06T07:55:39.577Z,6.00
2018-07-06T07:58:12.731Z,7.23
2018-07-06T08:00:46.147Z,7.60
2018-07-06T08:03:19.208Z,7.37
2018-07-06T08:05:52.550Z,7.97
2018-07-06T08:08:25.687Z,8.30
2018-07-06T08:10:57.557Z,7.90
2018-07-06T08:13:30.656Z,8.47
2018-07-06T08:16:03.663Z,7.87
2018-07-06T08:18:36.716Z,6.97
2018-07-06T08:21:09.892Z,7.30
2018-07-06T08:23:42.891Z,7.83
2018-07-06T08:26:16.051Z,8.13
2018-07-06T08:28:49.113Z,8.23
2018-07-06T08:31:22.083Z,8.00
2018-07-06T08:34:03.856Z,8.00
2018-07-06T08:37:46.145Z,9.17
2018-07-06T08:40:19.752Z,9.77
2018-07-06T08:42:54.930Z,8.37
2018-07-06T08:45:29.719Z,8.97
2018-07-06T08:48:02.693Z,8.17
2018-07-06T08:50:35.711Z,9.23
2018-07-06T08:53:08.801Z,9.60
2018-07-06T08:55:41.955Z,8.37
2018-07-06T08:58:15.411Z,8.47
2018-07-06T09:00:48.595Z,8.03
2018-07-06T09:03:21.664Z,7.80
2018-07-06T09:05:54.702Z,7.00
2018-07-06T09:08:27.757Z,7.40
2018-07-06T09:11:01.026Z,7.57
2018-07-06T09:13:34.087Z,6.77
2018-07-06T09:16:07.157Z,6.57
2018-07-06T09:18:40.200Z,8.10
2018-07-06T09:21:13.550Z,7.20
2018-07-06T09:23:46.531Z,8.57
2018-07-06T09:26:19.598Z,7.80
2018-07-06T09:28:52.956Z,7.83
2018-07-06T09:31:30.311Z,8.20
2018-07-06T09:34:03.560Z,7.87
2018-07-06T09:36:36.736Z,7.57
2018-07-06T09:39:09.833Z,8.60
2018-07-06T09:41:42.994Z,8.67
2018-07-06T09:44:16.008Z,8.83
2018-07-06T09:46:49.006Z,8.23
2018-07-06T09:49:22.164Z,9.00
2018-07-06T09:51:55.120Z,7.83
2018-07-06T09:54:28.178Z,9.43
2018-07-06T09:57:01.271Z,10.43
2018-07-06T10:34:56.104Z,9.40
2018-07-06T10:37:29.414Z,9.07
2018-07-06T10:40:02.502Z,8.50
2018-07-06T10:42:36.230Z,8.93
2018-07-06T10:45:09.336Z,8.87
2018-07-06T10:47:42.615Z,9.17
2018-07-06T10:50:15.580Z,9.60
2018-07-06T10:52:48.634Z,10.37
2018-07-06T10:55:21.721Z,8.70
2018-07-06T10:57:54.970Z,9.63
2018-07-06T11:00:28.272Z,9.73
2018-07-06T11:03:01.511Z,9.70
2018-07-06T11:05:34.845Z,9.60
2018-07-06T11:08:08.417Z,9.50
2018-07-06T11:10:41.770Z,9.87
2018-07-06T11:13:14.944Z,9.40
2018-07-06T11:15:48.092Z,10.50
2018-07-06T11:18:21.368Z,9.97
2018-07-06T11:20:54.560Z,10.47
2018-07-06T11:23:27.900Z,11.00
2018-07-06T11:26:01.216Z,11.27
2018-07-06T11:28:34.660Z,10.93
2018-07-06T11:31:08.462Z,10.60
2018-07-06T11:33:41.815Z,11.23
2018-07-06T11:36:15.013Z,11.23
2018-07-06T11:38:48.152Z,11.37
2018-07-06T11:41:21.305Z,11.50
2018-07-06T11:43:54.338Z,10.90
2018-07-06T11:46:27.418Z,9.90
2018-07-06T11:49:00.470Z,10.00
2018-07-06T11:51:33.574Z,11.13
2018-07-06T11:54:06.744Z,9.90
2018-07-06T11:56:39.742Z,10.50
2018-07-06T11:59:11.622Z,10.77
2018-07-06T12:01:44.732Z,10.57
2018-07-06T12:04:17.945Z,10.80
2018-07-06T12:06:51.271Z,9.70
2018-07-06T12:09:24.396Z,11.00
2018-07-06T12:11:57.469Z,10.93
2018-07-06T12:14:30.515Z,10.13
2018-07-06T12:17:03.651Z,9.93
2018-07-06T12:19:36.761Z,10.80
2018-07-06T12:22:10.720Z,10.63
2018-07-06T12:24:43.750Z,11.00
2018-07-06T12:27:16.886Z,9.80
2018-07-06T12:29:50.538Z,9.73
2018-07-06T12:32:23.734Z,9.60
2018-07-06T12:34:56.699Z,9.73
2018-07-06T12:37:29.938Z,9.30
2018-07-06T12:40:03.062Z,9.50
2018-07-06T12:42:36.181Z,10.47
2018-07-06T12:45:09.383Z,10.30
2018-07-06T12:47:42.360Z,10.20
2018-07-06T12:50:17.436Z,10.37
2018-07-06T12:52:50.590Z,11.80
2018-07-06T12:55:23.677Z,11.60
2018-07-06T12:57:57.484Z,11.47
2018-07-06T13:00:31.295Z,10.63
2018-07-06T13:03:04.399Z,11.87
2018-07-06T13:05:37.470Z,12.73
2018-07-06T13:08:10.553Z,12.20
2018-07-06T13:10:43.605Z,12.30
2018-07-06T13:13:16.655Z,12.60
2018-07-06T13:15:49.656Z,12.70
2018-07-06T13:18:22.771Z,11.30
2018-07-06T13:20:55.759Z,12.03
2018-07-06T13:23:29.049Z,12.30
2018-07-06T13:26:02.144Z,11.90
2018-07-06T13:28:35.224Z,13.13
2018-07-06T13:31:08.315Z,11.37
2018-07-06T13:33:41.463Z,12.40
2018-07-06T13:36:14.834Z,13.00
2018-07-06T13:38:48.113Z,12.40
2018-07-06T13:41:22.582Z,13.93
2018-07-06T13:43:55.751Z,14.00
2018-07-06T13:46:28.830Z,12.67
2018-07-06T13:49:02.038Z,12.80
2018-07-06T13:51:35.105Z,14.07
2018-07-06T13:54:06.655Z,11.63
2018-07-06T13:56:39.768Z,13.33
2018-07-06T13:59:12.887Z,12.60
2018-07-06T14:01:45.970Z,13.10
2018-07-06T14:04:19.045Z,13.67
2018-07-06T14:06:52.250Z,14.33
2018-07-06T14:09:25.357Z,13.83
2018-07-06T14:11:58.960Z,13.20
2018-07-06T14:14:32.881Z,12.40
2018-07-06T14:17:06.160Z,13.20
2018-07-06T14:19:39.789Z,12.37
2018-07-06T14:22:13.155Z,12.60
2018-07-06T14:24:46.531Z,11.67
2018-07-06T14:27:19.652Z,12.30
2018-07-06T14:29:53.642Z,12.07
2018-07-06T14:32:27.680Z,12.50
2018-07-06T14:35:00.811Z,12.30
2018-07-06T14:37:34.205Z,12.50
2018-07-06T14:40:07.292Z,12.73
2018-07-06T14:42:40.687Z,12.50
2018-07-06T14:45:14.030Z,12.43
2018-07-06T14:47:47.308Z,12.23
2018-07-06T14:50:20.471Z,12.40
2018-07-06T14:52:53.667Z,13.43
2018-07-06T14:55:26.744Z,13.27
2018-07-06T14:57:59.705Z,13.00
2018-07-06T15:00:32.834Z,12.80
2018-07-06T15:03:05.889Z,12.80
2018-07-06T15:05:39.077Z,12.77
2018-07-06T15:08:12.206Z,11.77
2018-07-06T15:10:45.574Z,11.97
2018-07-06T15:13:18.829Z,12.03
2018-07-06T15:15:52.478Z,13.10
2018-07-06T15:18:25.659Z,11.93
2018-07-06T15:20:59.028Z,12.20
2018-07-06T15:23:32.104Z,11.80
2018-07-06T15:26:05.213Z,11.33
2018-07-06T15:28:38.504Z,12.43
2018-07-06T15:31:11.819Z,11.87
2018-07-06T15:33:45.569Z,12.07
2018-07-06T15:36:17.840Z,11.93
2018-07-06T15:38:52.265Z,11.10
2018-07-06T15:41:26.221Z,11.77
2018-07-06T15:43:59.544Z,12.00
2018-07-06T15:46:34.240Z,12.30
2018-07-06T15:49:07.419Z,10.87
2018-07-06T15:51:40.518Z,11.57
2018-07-06T15:54:13.689Z,11.03
2018-07-06T15:56:47.015Z,11.20
2018-07-06T15:59:20.470Z,10.50
2018-07-06T16:01:53.681Z,11.53
2018-07-06T16:04:26.966Z,11.30
2018-07-06T16:07:00.617Z,10.97
2018-07-06T16:09:33.678Z,10.10
2018-07-06T16:12:07.089Z,11.50
2018-07-06T16:14:40.246Z,10.13
2018-07-06T16:17:13.455Z,11.90
2018-07-06T16:19:46.767Z,11.50
2018-07-06T16:22:20.025Z,11.90
2018-07-06T16:24:53.358Z,11.63
2018-07-06T16:27:26.569Z,11.23
2018-07-06T16:29:59.786Z,11.10
2018-07-06T16:32:32.967Z,10.90
2018-07-06T16:35:06.225Z,11.63
2018-07-06T16:37:39.469Z,10.53
2018-07-06T16:40:12.667Z,10.83
2018-07-06T16:42:45.769Z,11.07
2018-07-06T16:45:18.957Z,10.90
2018-07-06T16:47:52.012Z,11.30
2018-07-06T16:50:26.696Z,12.13
2018-07-06T16:52:59.980Z,10.93
2018-07-06T16:55:33.886Z,11.40
2018-07-06T16:58:07.636Z,10.70
2018-07-06T17:00:40.824Z,10.97
2018-07-06T17:03:14.051Z,12.37
2018-07-06T17:05:47.891Z,12.20
2018-07-06T17:08:21.031Z,13.10
2018-07-06T17:10:54.034Z,12.90
2018-07-06T17:13:27.121Z,12.63
2018-07-06T17:16:00.082Z,12.13
2018-07-06T17:18:33.112Z,12.63
2018-07-06T17:21:06.424Z,11.83
2018-07-06T17:23:39.470Z,11.00
2018-07-06T17:26:12.486Z,11.70
2018-07-06T17:28:49.962Z,11.20
2018-07-06T17:31:23.078Z,12.77
2018-07-06T17:33:56.068Z,11.50
2018-07-06T17:36:29.113Z,13.30
2018-07-06T17:39:02.327Z,11.47
2018-07-06T17:41:35.422Z,12.43
2018-07-06T17:44:08.545Z,12.10
2018-07-06T17:46:41.851Z,12.90
2018-07-06T17:49:14.994Z,11.53
2018-07-06T17:51:48.231Z,12.50
2018-07-06T17:54:21.379Z,12.10
2018-07-06T17:56:54.420Z,12.90
2018-07-06T17:59:27.454Z,13.43
2018-07-06T18:02:00.876Z,13.87
2018-07-06T18:04:34.628Z,13.27
2018-07-06T18:07:08.233Z,12.57
2018-07-06T18:09:41.555Z,11.57
2018-07-06T18:12:14.744Z,13.40
2018-07-06T18:14:48.233Z,13.80
2018-07-06T18:17:20.179Z,14.30
2018-07-06T18:19:53.715Z,14.03
2018-07-06T18:22:27.801Z,14.57
2018-07-06T18:25:01.489Z,14.27
2018-07-06T18:27:34.919Z,14.70
2018-07-06T18:30:08.192Z,13.67
2018-07-06T18:58:31.324Z,13.37
2018-07-06T19:01:04.462Z,15.60
2018-07-06T19:03:37.486Z,16.97
2018-07-06T19:06:10.531Z,17.93
2018-07-06T19:08:43.629Z,17.70
2018-07-06T19:11:16.748Z,17.27
2018-07-06T19:13:48.329Z,17.93
2018-07-06T19:16:21.414Z,17.53
2018-07-06T19:18:54.676Z,15.90
2018-07-06T19:21:28.087Z,16.80
2018-07-06T19:24:01.086Z,17.47
2018-07-06T19:26:34.234Z,19.00
2018-07-06T19:29:07.270Z,19.27
2018-07-06T19:31:40.487Z,19.10
2018-07-06T19:34:13.601Z,17.53
2018-07-06T19:36:46.722Z,19.50
2018-07-06T19:39:18.409Z,18.80
2018-07-06T19:41:51.547Z,20.23
2018-07-06T19:44:24.647Z,20.67
2018-07-06T19:46:57.727Z,18.33
2018-07-06T19:49:30.802Z,19.53
2018-07-06T19:52:03.879Z,19.83
2018-07-06T19:54:36.978Z,20.50
2018-07-06T19:57:10.401Z,20.33
2018-07-06T19:59:43.419Z,21.67
2018-07-06T20:02:16.527Z,19.70
2018-07-06T20:04:49.562Z,20.57
2018-07-06T20:07:23.513Z,19.17
2018-07-06T20:09:56.747Z,20.30
2018-07-06T20:12:29.732Z,19.97
2018-07-06T20:15:02.815Z,19.80
2018-07-06T20:17:36.040Z,20.73
2018-07-06T20:20:10.773Z,20.83
2018-07-06T20:22:42.355Z,20.67
2018-07-06T20:25:15.498Z,20.07
2018-07-06T20:27:48.618Z,20.30
2018-07-06T20:30:21.838Z,22.83
2018-07-06T20:32:54.951Z,21.57
2018-07-06T20:35:27.983Z,19.60
2018-07-06T20:38:01.087Z,21.63
2018-07-06T20:40:34.286Z,20.27
2018-07-06T20:43:07.454Z,20.90
2018-07-06T20:45:40.512Z,21.83
2018-07-06T20:48:13.611Z,19.33
2018-07-06T20:50:46.755Z,21.13
2018-07-06T20:53:19.837Z,20.07
2018-07-06T20:55:52.866Z,21.47
2018-07-06T20:58:25.959Z,22.20
2018-07-06T21:00:59.083Z,20.00
2018-07-06T21:03:32.115Z,19.73
2018-07-06T21:06:05.390Z,20.97
2018-07-06T21:08:38.466Z,19.40
2018-07-06T21:11:11.491Z,19.73
2018-07-06T21:13:44.627Z,22.63
2018-07-06T21:16:17.698Z,20.53
2018-07-06T21:18:50.919Z,21.60
2018-07-06T21:21:24.014Z,22.10
2018-07-06T21:23:57.234Z,21.47
2018-07-06T21:26:30.317Z,21.37
2018-07-06T21:29:03.493Z,21.53
2018-07-06T21:31:36.494Z,20.50
2018-07-06T21:34:09.688Z,21.10
2018-07-06T21:36:42.769Z,21.30
2018-07-06T21:39:16.030Z,22.27
2018-07-06T21:41:49.055Z,22.20
2018-07-06T21:44:22.189Z,21.60
2018-07-06T21:46:55.276Z,21.60
2018-07-06T21:49:28.309Z,22.90
2018-07-06T21:52:01.367Z,22.93
2018-07-06T21:54:34.386Z,23.97
2018-07-06T21:57:07.451Z,21.70
2018-07-06T21:59:41.381Z,23.37
2018-07-06T22:02:19.235Z,23.60
2018-07-06T22:04:56.501Z,22.50
2018-07-06T22:07:29.534Z,25.00
2018-07-06T22:10:02.565Z,24.57
2018-07-06T22:12:35.702Z,24.30
2018-07-06T22:15:08.787Z,24.50
2018-07-06T22:17:41.798Z,22.90
2018-07-06T22:20:14.946Z,25.87
2018-07-06T22:22:48.094Z,23.10
2018-07-06T22:25:21.050Z,25.87
2018-07-06T22:27:54.098Z,26.87
2018-07-06T22:30:27.241Z,27.00
2018-07-06T22:33:01.346Z,23.13
2018-07-06T22:35:34.528Z,27.97
2018-07-06T22:38:07.675Z,26.50
2018-07-06T22:40:40.672Z,27.30
2018-07-06T22:43:13.808Z,27.07
2018-07-06T22:45:47.024Z,27.47
2018-07-06T22:48:20.139Z,26.37
2018-07-06T22:50:53.268Z,26.70
2018-07-06T22:53:26.335Z,26.03
2018-07-06T22:55:59.447Z,29.47
2018-07-06T22:58:32.563Z,29.07
2018-07-06T23:01:05.873Z,27.87
2018-07-06T23:03:39.036Z,28.10
2018-07-06T23:06:12.337Z,27.30
2018-07-06T23:08:45.671Z,25.70
2018-07-06T23:11:18.807Z,27.20
2018-07-06T23:13:52.029Z,28.87
2018-07-06T23:16:25.183Z,28.10
2018-07-06T23:18:58.324Z,30.20
2018-07-06T23:21:31.377Z,28.50
2018-07-06T23:24:04.427Z,29.67
2018-07-06T23:26:37.646Z,26.43
2018-07-06T23:29:11.472Z,27.30
2018-07-06T23:31:44.490Z,27.30
2018-07-06T23:34:17.704Z,28.87
2018-07-06T23:36:50.795Z,26.47
2018-07-06T23:39:24.012Z,26.70
2018-07-06T23:41:58.026Z,28.33
2018-07-06T23:44:31.134Z,27.23
2018-07-06T23:47:04.226Z,26.73
2018-07-06T23:49:37.282Z,27.00
2018-07-06T23:52:10.363Z,29.70
2018-07-06T23:54:44.780Z,28.40
2018-07-06T23:57:17.859Z,30.30
2018-07-06T23:59:51.102Z,28.50
